Inglefield, Indiana
Current Conditions -  °F | °C
As of 1:54 AM on Wednesday 22 Oct 2014 (Local Time) from KEVV Reporting Station
Clear Clear  
Wind Chill: 44°   Ceiling: Unl
Heat Index: 47°   Visibility: 10mi
Dew Point: 42°   Wind: 6mph
Humidity: 83%   Direction: 20°NNE
Pressure: 30.21"   Gusts: NA
Location:  38.11°N, 87.56°W
Report Text: KEVV 220654Z AUTO 02005KT 10SM CLR 08/06 A3021 RMK AO2 SLP229 T00830056
Loading
Personal Weather Stations






























Interactive Weather Map
Tropical Storm Tracking
New forecast layout! Learn more

10-Day Weather Forecast

Advertisements
Track Severe Weather on mobile